DLH423 KBOS-EDDF
Flight info
| Callsign | DLH423 |
|---|---|
| Flight time | N/A |
| Altitude | 37000 |
| Route | CELTK7 CELTK DCT FRILL DCT BRADD N261B NICSO/M079F390 DCT 48N050W 49N040W 51N030W 52N020W DCT LIMRI DCT XETBO/N0439F390 DCT EVRIN/N0448F410 DCT JETZI DCT AMFUL DCT CAWZE DCT SIRIC P2 DVR UL9 KONAN DCT KOK UL607 SPI T180 NIVNU/N0354F230 T847 IMCOM IMCOM1D |
| Aircraft | A343/H-SDE2E3FGHIJ3J5M1P2RWXYZ/LB1D1 |
Departure
| Time | N/A |
|---|---|
| Airport | Boston Logan International Airport (KBOS) |
Arrival
| Time | 2026-04-14 17:08 |
|---|---|
| Airport | Frankfurt Main Airport (EDDF) |
| Time | Latitude | Longitude | Altitude | Speed | Heading |
|---|---|---|---|---|---|
| 2026-04-14 14:10 | 51.73534 | -23.68448 | 38297 ft | 495 kts | 86° |
| 2026-04-14 14:10 | 51.74496 | -23.57450 | 38303 ft | 495 kts | 86° |
| 2026-04-14 14:11 | 51.75449 | -23.46441 | 38309 ft | 495 kts | 87° |
| 2026-04-14 14:11 | 51.76391 | -23.35428 | 38306 ft | 496 kts | 87° |
| 2026-04-14 14:12 | 51.77323 | -23.24401 | 38319 ft | 496 kts | 87° |
| 2026-04-14 14:12 | 51.78246 | -23.13369 | 38317 ft | 496 kts | 87° |
| 2026-04-14 14:13 | 51.79158 | -23.02333 | 38324 ft | 496 kts | 87° |
| 2026-04-14 14:13 | 51.80059 | -22.91295 | 38305 ft | 495 kts | 88° |
| 2026-04-14 14:14 | 51.80951 | -22.80246 | 38329 ft | 496 kts | 88° |
| 2026-04-14 14:14 | 51.81832 | -22.69190 | 38340 ft | 496 kts | 88° |
| 2026-04-14 14:15 | 51.82703 | -22.58132 | 38342 ft | 496 kts | 88° |
| 2026-04-14 14:15 | 51.83563 | -22.47070 | 38345 ft | 496 kts | 88° |
| 2026-04-14 14:16 | 51.84414 | -22.36001 | 38342 ft | 496 kts | 88° |
| 2026-04-14 14:16 | 51.85255 | -22.24908 | 38353 ft | 498 kts | 89° |
| 2026-04-14 14:17 | 51.86496 | -22.08271 | 38353 ft | 499 kts | 89° |
| 2026-04-14 14:17 | 51.87315 | -21.97121 | 38353 ft | 499 kts | 89° |
| 2026-04-14 14:18 | 51.88124 | -21.85967 | 38366 ft | 499 kts | 89° |
| 2026-04-14 14:18 | 51.88922 | -21.74804 | 38371 ft | 499 kts | 89° |
| 2026-04-14 14:19 | 51.89709 | -21.63637 | 38370 ft | 499 kts | 89° |
| 2026-04-14 14:19 | 51.90486 | -21.52469 | 38376 ft | 499 kts | 89° |
| 2026-04-14 14:20 | 51.91252 | -21.41299 | 38362 ft | 499 kts | 90° |
| 2026-04-14 14:20 | 51.92007 | -21.30129 | 38384 ft | 499 kts | 90° |
| 2026-04-14 14:21 | 51.92752 | -21.18948 | 38385 ft | 499 kts | 90° |
| 2026-04-14 14:21 | 51.93487 | -21.07765 | 38393 ft | 499 kts | 90° |
| 2026-04-14 14:22 | 51.94211 | -20.96573 | 38392 ft | 499 kts | 90° |
| 2026-04-14 14:22 | 51.94923 | -20.85395 | 38401 ft | 499 kts | 90° |
| 2026-04-14 14:23 | 51.95625 | -20.74212 | 38398 ft | 499 kts | 90° |
| 2026-04-14 14:23 | 51.96316 | -20.63028 | 38406 ft | 498 kts | 90° |
| 2026-04-14 14:24 | 51.96997 | -20.51843 | 38413 ft | 498 kts | 90° |
| 2026-04-14 14:24 | 51.97666 | -20.40656 | 38408 ft | 498 kts | 90° |
| 2026-04-14 14:25 | 51.98321 | -20.29538 | 38424 ft | 498 kts | 91° |
| 2026-04-14 14:25 | 51.98969 | -20.18347 | 38405 ft | 499 kts | 91° |
| 2026-04-14 14:26 | 51.99608 | -20.07118 | 38420 ft | 501 kts | 91° |
| 2026-04-14 14:26 | 52.00216 | -19.95862 | 38389 ft | 500 kts | 93° |
| 2026-04-14 14:27 | 52.00464 | -19.84630 | 38430 ft | 497 kts | 96° |
| 2026-04-14 14:27 | 52.00589 | -19.73414 | 38430 ft | 497 kts | 96° |
| 2026-04-14 14:28 | 52.00749 | -19.62186 | 38438 ft | 498 kts | 95° |
| 2026-04-14 14:28 | 52.00938 | -19.50954 | 38443 ft | 498 kts | 95° |
| 2026-04-14 14:29 | 52.01127 | -19.39722 | 38429 ft | 498 kts | 95° |
| 2026-04-14 14:29 | 52.01305 | -19.28487 | 38448 ft | 498 kts | 95° |
| 2026-04-14 14:30 | 52.01471 | -19.17253 | 38445 ft | 498 kts | 95° |
| 2026-04-14 14:30 | 52.01624 | -19.06018 | 38454 ft | 498 kts | 95° |
| 2026-04-14 14:31 | 52.01767 | -18.94783 | 38454 ft | 498 kts | 96° |
| 2026-04-14 14:31 | 52.01900 | -18.83549 | 38463 ft | 498 kts | 96° |
| 2026-04-14 14:32 | 52.02021 | -18.72315 | 38470 ft | 498 kts | 96° |
| 2026-04-14 14:32 | 52.02132 | -18.61081 | 38470 ft | 498 kts | 96° |
| 2026-04-14 14:33 | 52.02233 | -18.49847 | 38477 ft | 498 kts | 96° |
| 2026-04-14 14:33 | 52.02322 | -18.38615 | 38454 ft | 497 kts | 96° |
| 2026-04-14 14:34 | 52.02436 | -18.21753 | 38483 ft | 498 kts | 96° |
| 2026-04-14 14:35 | 52.02499 | -18.10583 | 38495 ft | 498 kts | 96° |
| 2026-04-14 14:35 | 52.02551 | -17.99333 | 38489 ft | 498 kts | 96° |
| 2026-04-14 14:36 | 52.02593 | -17.88085 | 38481 ft | 498 kts | 97° |
| 2026-04-14 14:36 | 52.02624 | -17.76836 | 38498 ft | 498 kts | 97° |
| 2026-04-14 14:37 | 52.02644 | -17.65590 | 38504 ft | 498 kts | 97° |
| 2026-04-14 14:37 | 52.02654 | -17.54347 | 38512 ft | 498 kts | 97° |
| 2026-04-14 14:38 | 52.02652 | -17.43108 | 38512 ft | 498 kts | 97° |
| 2026-04-14 14:38 | 52.02640 | -17.31869 | 38508 ft | 498 kts | 97° |
| 2026-04-14 14:39 | 52.02617 | -17.20611 | 38522 ft | 499 kts | 97° |
| 2026-04-14 14:39 | 52.02584 | -17.09351 | 38522 ft | 499 kts | 97° |
| 2026-04-14 14:40 | 52.02541 | -16.98095 | 38527 ft | 498 kts | 97° |
| 2026-04-14 14:40 | 52.02486 | -16.86834 | 38510 ft | 500 kts | 98° |
| 2026-04-14 14:41 | 52.02418 | -16.75518 | 38536 ft | 502 kts | 98° |
| 2026-04-14 14:41 | 52.02355 | -16.66093 | 38545 ft | 502 kts | 98° |
| 2026-04-14 14:42 | 52.02270 | -16.54754 | 38542 ft | 502 kts | 98° |
| 2026-04-14 14:42 | 52.02174 | -16.43415 | 38550 ft | 502 kts | 98° |
| 2026-04-14 14:43 | 52.02066 | -16.32085 | 38537 ft | 502 kts | 98° |
| 2026-04-14 14:43 | 52.01947 | -16.20740 | 38562 ft | 503 kts | 98° |
| 2026-04-14 14:44 | 52.01817 | -16.09389 | 38559 ft | 503 kts | 98° |
| 2026-04-14 14:44 | 52.01677 | -15.98041 | 38567 ft | 503 kts | 98° |
| 2026-04-14 14:45 | 52.01526 | -15.86700 | 38565 ft | 503 kts | 99° |
| 2026-04-14 14:45 | 52.01363 | -15.75352 | 38569 ft | 503 kts | 99° |
| 2026-04-14 14:46 | 52.01189 | -15.63989 | 38582 ft | 504 kts | 99° |
| 2026-04-14 14:46 | 52.01005 | -15.52626 | 38584 ft | 503 kts | 99° |
| 2026-04-14 14:47 | 52.00810 | -15.41271 | 38588 ft | 503 kts | 99° |
| 2026-04-14 14:47 | 52.00604 | -15.29916 | 38568 ft | 503 kts | 99° |
| 2026-04-14 14:48 | 52.00385 | -15.18541 | 38591 ft | 505 kts | 99° |
| 2026-04-14 14:48 | 52.00156 | -15.07150 | 38588 ft | 505 kts | 99° |
| 2026-04-14 14:49 | 51.99936 | -14.95752 | 38591 ft | 506 kts | 98° |
| 2026-04-14 14:49 | 51.99962 | -14.84300 | 38582 ft | 508 kts | 96° |
| 2026-04-14 14:50 | 52.00058 | -14.72841 | 38605 ft | 508 kts | 97° |
| 2026-04-14 14:50 | 52.00109 | -14.61393 | 38606 ft | 507 kts | 97° |
| 2026-04-14 14:51 | 52.00120 | -14.49957 | 38606 ft | 507 kts | 97° |
| 2026-04-14 14:51 | 52.00112 | -14.38603 | 38611 ft | 507 kts | 97° |
| 2026-04-14 14:52 | 52.00093 | -14.27174 | 38594 ft | 507 kts | 98° |
| 2026-04-14 14:52 | 52.00065 | -14.15744 | 38622 ft | 506 kts | 98° |
| 2026-04-14 14:53 | 52.00026 | -14.04317 | 38622 ft | 506 kts | 98° |
| 2026-04-14 14:53 | 51.99994 | -13.92889 | 38627 ft | 507 kts | 98° |
| 2026-04-14 14:54 | 52.00016 | -13.81442 | 38603 ft | 507 kts | 98° |
| 2026-04-14 14:54 | 52.00032 | -13.69966 | 38631 ft | 511 kts | 98° |
| 2026-04-14 14:55 | 52.00029 | -13.58429 | 38637 ft | 512 kts | 98° |
| 2026-04-14 14:55 | 52.00012 | -13.46889 | 38636 ft | 511 kts | 98° |
| 2026-04-14 14:56 | 51.99960 | -13.29563 | 38614 ft | 514 kts | 98° |
| 2026-04-14 14:56 | 51.99912 | -13.17951 | 38651 ft | 514 kts | 98° |
| 2026-04-14 14:57 | 51.99855 | -13.06354 | 38649 ft | 514 kts | 98° |
| 2026-04-14 14:57 | 51.99785 | -12.94775 | 38658 ft | 513 kts | 98° |
| 2026-04-14 14:58 | 51.99703 | -12.83191 | 38660 ft | 513 kts | 99° |
| 2026-04-14 14:58 | 51.99608 | -12.71595 | 38660 ft | 516 kts | 99° |
| 2026-04-14 14:59 | 51.99501 | -12.59936 | 38663 ft | 517 kts | 99° |
| 2026-04-14 14:59 | 51.99386 | -12.48354 | 38671 ft | 517 kts | 99° |
| 2026-04-14 15:00 | 51.99259 | -12.36694 | 38675 ft | 517 kts | 99° |
| 2026-04-14 15:00 | 51.99119 | -12.25038 | 38675 ft | 518 kts | 99° |
| 2026-04-14 15:01 | 51.98962 | -12.13282 | 38688 ft | 523 kts | 99° |
| 2026-04-14 15:01 | 51.98798 | -12.01482 | 38687 ft | 523 kts | 99° |
| 2026-04-14 15:02 | 51.98624 | -11.89688 | 38693 ft | 523 kts | 99° |
| 2026-04-14 15:02 | 51.98436 | -11.77902 | 38667 ft | 522 kts | 99° |
| 2026-04-14 15:03 | 51.98236 | -11.66111 | 38700 ft | 523 kts | 99° |
| 2026-04-14 15:03 | 51.98023 | -11.54322 | 38708 ft | 523 kts | 99° |
| 2026-04-14 15:04 | 51.97800 | -11.42536 | 38708 ft | 523 kts | 99° |
| 2026-04-14 15:04 | 51.97564 | -11.30753 | 38658 ft | 522 kts | 100° |
| 2026-04-14 15:05 | 51.97317 | -11.18980 | 38720 ft | 523 kts | 99° |
| 2026-04-14 15:05 | 51.97058 | -11.07195 | 38725 ft | 523 kts | 99° |
| 2026-04-14 15:06 | 51.96789 | -10.95498 | 38733 ft | 523 kts | 100° |
| 2026-04-14 15:06 | 51.96506 | -10.83724 | 38731 ft | 523 kts | 100° |
| 2026-04-14 15:07 | 51.96211 | -10.71945 | 38744 ft | 524 kts | 99° |
| 2026-04-14 15:07 | 51.95904 | -10.60138 | 38753 ft | 524 kts | 99° |
| 2026-04-14 15:08 | 51.95586 | -10.48322 | 38756 ft | 524 kts | 99° |
| 2026-04-14 15:08 | 51.95255 | -10.36515 | 38761 ft | 524 kts | 100° |
| 2026-04-14 15:09 | 51.94913 | -10.24705 | 38760 ft | 524 kts | 100° |
| 2026-04-14 15:09 | 51.94558 | -10.12903 | 38771 ft | 524 kts | 100° |
| 2026-04-14 15:10 | 51.94193 | -10.01107 | 38775 ft | 524 kts | 100° |
| 2026-04-14 15:10 | 51.93815 | -9.89309 | 38770 ft | 524 kts | 100° |
| 2026-04-14 15:11 | 51.93426 | -9.77522 | 38763 ft | 524 kts | 99° |
| 2026-04-14 15:11 | 51.93024 | -9.65725 | 38777 ft | 524 kts | 100° |
| 2026-04-14 15:12 | 51.92611 | -9.53937 | 38778 ft | 524 kts | 100° |
| 2026-04-14 15:12 | 51.92188 | -9.42167 | 38780 ft | 523 kts | 100° |
| 2026-04-14 15:13 | 51.91752 | -9.30407 | 38780 ft | 523 kts | 100° |
| 2026-04-14 15:13 | 51.91303 | -9.18628 | 38793 ft | 525 kts | 99° |
| 2026-04-14 15:14 | 51.90841 | -9.06826 | 38793 ft | 525 kts | 99° |
| 2026-04-14 15:14 | 51.90373 | -8.95116 | 38798 ft | 525 kts | 99° |
| 2026-04-14 15:15 | 51.89889 | -8.83325 | 38798 ft | 524 kts | 100° |
| 2026-04-14 15:15 | 51.89392 | -8.71539 | 38807 ft | 526 kts | 99° |
| 2026-04-14 15:16 | 51.88883 | -8.59729 | 38793 ft | 526 kts | 99° |
| 2026-04-14 15:16 | 51.88364 | -8.47919 | 38801 ft | 526 kts | 99° |
| 2026-04-14 15:17 | 51.87831 | -8.36104 | 38796 ft | 526 kts | 100° |
| 2026-04-14 15:17 | 51.87287 | -8.24297 | 38798 ft | 526 kts | 99° |
| 2026-04-14 15:18 | 51.86731 | -8.12489 | 38816 ft | 526 kts | 99° |
| 2026-04-14 15:18 | 51.86162 | -8.00692 | 38816 ft | 526 kts | 99° |
| 2026-04-14 15:19 | 51.85582 | -7.88891 | 38829 ft | 526 kts | 99° |
| 2026-04-14 15:19 | 51.84990 | -7.77093 | 38823 ft | 526 kts | 99° |
| 2026-04-14 15:20 | 51.84386 | -7.65296 | 38840 ft | 526 kts | 99° |
| 2026-04-14 15:20 | 51.83772 | -7.53510 | 38851 ft | 526 kts | 99° |
| 2026-04-14 15:21 | 51.83145 | -7.41732 | 38857 ft | 526 kts | 99° |
| 2026-04-14 15:21 | 51.82506 | -7.29960 | 38855 ft | 526 kts | 99° |
| 2026-04-14 15:22 | 51.81855 | -7.18189 | 38878 ft | 527 kts | 98° |
| 2026-04-14 15:22 | 51.81193 | -7.06411 | 38872 ft | 526 kts | 99° |
| 2026-04-14 15:23 | 51.80519 | -6.94640 | 38879 ft | 526 kts | 99° |
| 2026-04-14 15:23 | 51.79834 | -6.82879 | 38886 ft | 526 kts | 99° |
| 2026-04-14 15:24 | 51.79135 | -6.71112 | 38889 ft | 527 kts | 98° |
| 2026-04-14 15:24 | 51.78426 | -6.59337 | 39008 ft | 526 kts | 98° |
| 2026-04-14 15:25 | 51.78062 | -6.53465 | 39184 ft | 525 kts | 99° |
| 2026-04-14 15:25 | 51.77601 | -6.47634 | 39390 ft | 522 kts | 102° |
| 2026-04-14 15:25 | 51.77061 | -6.41843 | 39623 ft | 520 kts | 102° |
| 2026-04-14 15:25 | 51.76494 | -6.36090 | 39840 ft | 518 kts | 102° |
| 2026-04-14 15:26 | 51.75925 | -6.30348 | 40013 ft | 517 kts | 102° |
| 2026-04-14 15:26 | 51.75364 | -6.24614 | 40157 ft | 517 kts | 102° |
| 2026-04-14 15:26 | 51.74813 | -6.18885 | 40301 ft | 517 kts | 101° |
| 2026-04-14 15:26 | 51.74269 | -6.13162 | 40462 ft | 516 kts | 101° |
| 2026-04-14 15:27 | 51.73729 | -6.07443 | 40628 ft | 515 kts | 101° |
| 2026-04-14 15:27 | 51.73191 | -6.01745 | 40803 ft | 513 kts | 101° |
| 2026-04-14 15:27 | 51.72651 | -5.96054 | 40910 ft | 514 kts | 101° |
| 2026-04-14 15:27 | 51.72106 | -5.90347 | 40926 ft | 516 kts | 101° |
| 2026-04-14 15:28 | 51.71007 | -5.78936 | 40936 ft | 518 kts | 101° |
| 2026-04-14 15:28 | 51.69890 | -5.67461 | 40925 ft | 518 kts | 101° |
| 2026-04-14 15:29 | 51.68762 | -5.56004 | 40933 ft | 518 kts | 101° |
| 2026-04-14 15:29 | 51.67623 | -5.44547 | 40937 ft | 518 kts | 101° |
| 2026-04-14 15:30 | 51.66473 | -5.33106 | 40953 ft | 517 kts | 101° |
| 2026-04-14 15:30 | 51.65503 | -5.23538 | 40957 ft | 517 kts | 101° |
| 2026-04-14 15:31 | 51.64334 | -5.12116 | 40963 ft | 517 kts | 101° |
| 2026-04-14 15:31 | 51.63153 | -5.00701 | 40968 ft | 517 kts | 102° |
| 2026-04-14 15:32 | 51.61963 | -4.89303 | 40961 ft | 516 kts | 102° |
| 2026-04-14 15:32 | 51.60762 | -4.77915 | 40965 ft | 517 kts | 101° |
| 2026-04-14 15:33 | 51.59556 | -4.66583 | 40967 ft | 518 kts | 101° |
| 2026-04-14 15:33 | 51.58331 | -4.55179 | 40968 ft | 518 kts | 101° |
| 2026-04-14 15:34 | 51.57094 | -4.43778 | 40973 ft | 518 kts | 101° |
| 2026-04-14 15:34 | 51.55846 | -4.32387 | 40984 ft | 518 kts | 101° |
| 2026-04-14 15:35 | 51.54586 | -4.20987 | 40984 ft | 518 kts | 101° |
| 2026-04-14 15:35 | 51.53313 | -4.09590 | 40985 ft | 519 kts | 101° |
| 2026-04-14 15:36 | 51.52030 | -3.98190 | 40992 ft | 519 kts | 101° |
| 2026-04-14 15:36 | 51.50736 | -3.86802 | 40969 ft | 518 kts | 101° |
| 2026-04-14 15:37 | 51.49434 | -3.75419 | 40995 ft | 518 kts | 101° |
| 2026-04-14 15:37 | 51.48132 | -3.64039 | 41012 ft | 518 kts | 98° |
| 2026-04-14 15:38 | 51.47333 | -3.52558 | 41017 ft | 518 kts | 95° |
| 2026-04-14 15:38 | 51.46654 | -3.41051 | 41021 ft | 518 kts | 95° |
| 2026-04-14 15:39 | 51.45985 | -3.29538 | 41021 ft | 518 kts | 94° |
| 2026-04-14 15:39 | 51.45299 | -3.18048 | 41021 ft | 517 kts | 94° |
| 2026-04-14 15:40 | 51.44597 | -3.06575 | 41019 ft | 517 kts | 95° |
| 2026-04-14 15:40 | 51.43882 | -2.95100 | 41018 ft | 517 kts | 95° |
| 2026-04-14 15:41 | 51.43160 | -2.83712 | 41028 ft | 517 kts | 94° |
| 2026-04-14 15:41 | 51.42423 | -2.72268 | 41020 ft | 515 kts | 94° |
| 2026-04-14 15:42 | 51.41678 | -2.60851 | 41019 ft | 515 kts | 95° |
| 2026-04-14 15:42 | 51.40921 | -2.49438 | 41024 ft | 515 kts | 95° |
| 2026-04-14 15:43 | 51.40154 | -2.38034 | 41040 ft | 515 kts | 94° |
| 2026-04-14 15:43 | 51.39375 | -2.26647 | 41050 ft | 514 kts | 94° |
| 2026-04-14 15:44 | 51.38588 | -2.15283 | 41063 ft | 514 kts | 95° |
| 2026-04-14 15:44 | 51.37789 | -2.03917 | 41067 ft | 514 kts | 95° |
| 2026-04-14 15:45 | 51.36984 | -1.92560 | 41069 ft | 514 kts | 95° |
| 2026-04-14 15:45 | 51.36164 | -1.81228 | 41070 ft | 512 kts | 95° |
| 2026-04-14 15:46 | 51.35334 | -1.69942 | 41094 ft | 510 kts | 95° |
| 2026-04-14 15:46 | 51.34496 | -1.58672 | 41097 ft | 510 kts | 95° |
| 2026-04-14 15:47 | 51.33653 | -1.47396 | 41094 ft | 510 kts | 95° |
| 2026-04-14 15:47 | 51.32792 | -1.36139 | 41083 ft | 509 kts | 95° |
| 2026-04-14 15:48 | 51.31923 | -1.24930 | 41099 ft | 507 kts | 95° |
| 2026-04-14 15:48 | 51.31061 | -1.13752 | 41100 ft | 506 kts | 94° |
| 2026-04-14 15:49 | 51.30474 | -1.02555 | 41103 ft | 505 kts | 91° |
| 2026-04-14 15:49 | 51.29989 | -0.91347 | 41107 ft | 505 kts | 91° |
| 2026-04-14 15:50 | 51.29459 | -0.80183 | 41103 ft | 503 kts | 91° |
| 2026-04-14 15:50 | 51.28891 | -0.69129 | 41102 ft | 503 kts | 92° |
| 2026-04-14 15:51 | 51.28294 | -0.57931 | 41103 ft | 503 kts | 92° |
| 2026-04-14 15:51 | 51.27694 | -0.46881 | 41107 ft | 503 kts | 92° |
| 2026-04-14 15:52 | 51.27081 | -0.35757 | 41127 ft | 503 kts | 92° |
| 2026-04-14 15:52 | 51.26454 | -0.24558 | 41128 ft | 503 kts | 92° |
| 2026-04-14 15:53 | 51.25821 | -0.13439 | 41129 ft | 503 kts | 92° |
| 2026-04-14 15:53 | 51.25181 | -0.02392 | 41127 ft | 503 kts | 92° |
| 2026-04-14 15:54 | 51.24198 | 0.14231 | 41007 ft | 500 kts | 92° |
| 2026-04-14 15:55 | 51.23532 | 0.25261 | 40963 ft | 499 kts | 92° |
| 2026-04-14 15:55 | 51.22853 | 0.36297 | 40939 ft | 500 kts | 92° |
| 2026-04-14 15:56 | 51.22167 | 0.47324 | 40938 ft | 500 kts | 92° |
| 2026-04-14 15:56 | 51.21472 | 0.58334 | 40949 ft | 498 kts | 92° |
| 2026-04-14 15:57 | 51.20769 | 0.69311 | 40998 ft | 497 kts | 92° |
| 2026-04-14 15:57 | 51.20053 | 0.80279 | 41056 ft | 497 kts | 92° |
| 2026-04-14 15:58 | 51.19328 | 0.91249 | 41106 ft | 497 kts | 92° |
| 2026-04-14 15:58 | 51.18592 | 1.02218 | 41155 ft | 497 kts | 92° |
| 2026-04-14 15:59 | 51.17847 | 1.13166 | 41156 ft | 497 kts | 92° |
| 2026-04-14 15:59 | 51.17092 | 1.24112 | 41159 ft | 497 kts | 92° |
| 2026-04-14 16:00 | 51.16328 | 1.35050 | 41166 ft | 497 kts | 92° |
| 2026-04-14 16:00 | 51.15685 | 1.46004 | 41179 ft | 496 kts | 90° |
| 2026-04-14 16:01 | 51.15207 | 1.56928 | 41170 ft | 494 kts | 90° |
| 2026-04-14 16:01 | 51.14714 | 1.67843 | 41176 ft | 494 kts | 90° |
| 2026-04-14 16:02 | 51.14181 | 1.78747 | 41171 ft | 494 kts | 90° |
| 2026-04-14 16:02 | 51.13623 | 1.89647 | 41173 ft | 494 kts | 90° |
| 2026-04-14 16:03 | 51.13057 | 2.00470 | 41162 ft | 493 kts | 90° |
| 2026-04-14 16:03 | 51.12485 | 2.11348 | 41164 ft | 493 kts | 90° |
| 2026-04-14 16:04 | 51.11896 | 2.22218 | 41171 ft | 493 kts | 90° |
| 2026-04-14 16:04 | 51.11297 | 2.33094 | 41171 ft | 493 kts | 90° |
| 2026-04-14 16:05 | 51.10690 | 2.43970 | 41179 ft | 494 kts | 90° |
| 2026-04-14 16:05 | 51.10073 | 2.54848 | 41178 ft | 494 kts | 90° |
| 2026-04-14 16:06 | 51.09244 | 2.65720 | 41179 ft | 499 kts | 99° |
| 2026-04-14 16:06 | 51.07491 | 2.76410 | 41179 ft | 500 kts | 102° |
| 2026-04-14 16:07 | 51.05556 | 2.87048 | 41191 ft | 501 kts | 103° |
| 2026-04-14 16:07 | 51.03589 | 2.97668 | 41183 ft | 501 kts | 103° |
| 2026-04-14 16:08 | 51.01625 | 3.08290 | 41185 ft | 501 kts | 103° |
| 2026-04-14 16:08 | 50.99674 | 3.18843 | 41178 ft | 501 kts | 103° |
| 2026-04-14 16:09 | 50.97705 | 3.29449 | 41180 ft | 501 kts | 103° |
| 2026-04-14 16:09 | 50.95727 | 3.40040 | 41180 ft | 500 kts | 103° |
| 2026-04-14 16:10 | 50.93743 | 3.50596 | 41186 ft | 499 kts | 103° |
| 2026-04-14 16:10 | 50.91753 | 3.61133 | 41183 ft | 499 kts | 103° |
| 2026-04-14 16:11 | 50.89748 | 3.71656 | 41190 ft | 499 kts | 103° |
| 2026-04-14 16:11 | 50.87714 | 3.82166 | 41194 ft | 498 kts | 104° |
| 2026-04-14 16:12 | 50.85678 | 3.92628 | 41194 ft | 496 kts | 104° |
| 2026-04-14 16:12 | 50.83640 | 4.03060 | 41203 ft | 496 kts | 104° |
| 2026-04-14 16:13 | 50.81595 | 4.13480 | 41210 ft | 496 kts | 104° |
| 2026-04-14 16:13 | 50.79540 | 4.23898 | 41203 ft | 496 kts | 104° |
| 2026-04-14 16:14 | 50.77478 | 4.34286 | 41207 ft | 495 kts | 104° |
| 2026-04-14 16:14 | 50.75410 | 4.44658 | 41209 ft | 495 kts | 104° |
| 2026-04-14 16:15 | 50.73333 | 4.55015 | 41214 ft | 495 kts | 104° |
| 2026-04-14 16:15 | 50.71563 | 4.65429 | 41210 ft | 485 kts | 94° |
| 2026-04-14 16:16 | 50.71632 | 4.75826 | 41206 ft | 468 kts | 74° |
| 2026-04-14 16:16 | 50.72564 | 4.80683 | 41208 ft | 460 kts | 62° |
| 2026-04-14 16:16 | 50.74070 | 4.85087 | 41208 ft | 453 kts | 51° |
| 2026-04-14 16:16 | 50.76057 | 4.88881 | 41212 ft | 446 kts | 40° |
| 2026-04-14 16:17 | 50.78423 | 4.92004 | 41218 ft | 441 kts | 30° |
| 2026-04-14 16:17 | 50.83920 | 4.95975 | 41208 ft | 432 kts | 11° |
| 2026-04-14 16:18 | 50.88832 | 4.96921 | 41206 ft | 426 kts | 355° |
| 2026-04-14 16:18 | 50.94595 | 4.95175 | 41208 ft | 421 kts | 337° |
| 2026-04-14 16:19 | 51.00293 | 4.89454 | 41204 ft | 419 kts | 315° |
| 2026-04-14 16:19 | 51.03289 | 4.83354 | 41201 ft | 420 kts | 300° |
| 2026-04-14 16:20 | 51.05622 | 4.74834 | 41205 ft | 422 kts | 292° |
| 2026-04-14 16:20 | 51.07831 | 4.66249 | 41209 ft | 415 kts | 299° |
| 2026-04-14 16:21 | 51.09670 | 4.57616 | 41199 ft | 417 kts | 280° |
| 2026-04-14 16:21 | 51.09308 | 4.48419 | 41210 ft | 428 kts | 261° |
| 2026-04-14 16:22 | 51.07052 | 4.39551 | 41211 ft | 440 kts | 244° |
| 2026-04-14 16:22 | 51.03040 | 4.31961 | 41208 ft | 455 kts | 224° |
| 2026-04-14 16:22 | 51.00412 | 4.29092 | 41210 ft | 463 kts | 213° |
| 2026-04-14 16:23 | 50.97436 | 4.27041 | 41203 ft | 471 kts | 201° |
| 2026-04-14 16:23 | 50.94216 | 4.25930 | 41211 ft | 478 kts | 189° |
| 2026-04-14 16:23 | 50.90874 | 4.25839 | 41210 ft | 483 kts | 177° |
| 2026-04-14 16:23 | 50.87555 | 4.26800 | 41208 ft | 488 kts | 165° |
| 2026-04-14 16:24 | 50.84399 | 4.28794 | 41209 ft | 491 kts | 152° |
| 2026-04-14 16:24 | 50.81582 | 4.31704 | 41210 ft | 491 kts | 140° |
| 2026-04-14 16:24 | 50.79154 | 4.35486 | 41202 ft | 490 kts | 127° |
| 2026-04-14 16:24 | 50.77259 | 4.39937 | 41209 ft | 487 kts | 114° |
| 2026-04-14 16:25 | 50.75833 | 4.44767 | 41205 ft | 485 kts | 109° |
| 2026-04-14 16:25 | 50.73425 | 4.54712 | 41210 ft | 485 kts | 107° |
| 2026-04-14 16:26 | 50.71547 | 4.64889 | 41211 ft | 480 kts | 94° |
| 2026-04-14 16:26 | 50.71586 | 4.75221 | 41202 ft | 466 kts | 75° |
| 2026-04-14 16:26 | 50.72476 | 4.80089 | 41207 ft | 459 kts | 63° |
| 2026-04-14 16:27 | 50.73926 | 4.84518 | 41208 ft | 451 kts | 52° |
| 2026-04-14 16:27 | 50.75863 | 4.88367 | 41207 ft | 445 kts | 40° |
| 2026-04-14 16:27 | 50.78184 | 4.91535 | 41218 ft | 439 kts | 31° |
| 2026-04-14 16:27 | 50.80805 | 4.93955 | 41210 ft | 434 kts | 20° |
| 2026-04-14 16:28 | 50.83623 | 4.95589 | 41205 ft | 430 kts | 11° |
| 2026-04-14 16:28 | 50.89500 | 4.96563 | 41205 ft | 423 kts | 353° |
| 2026-04-14 16:29 | 50.95158 | 4.94412 | 41204 ft | 418 kts | 334° |
| 2026-04-14 16:29 | 50.99972 | 4.89364 | 41203 ft | 417 kts | 316° |
| 2026-04-14 16:30 | 51.03423 | 4.82006 | 41205 ft | 419 kts | 297° |
| 2026-04-14 16:30 | 51.05742 | 4.73486 | 41205 ft | 421 kts | 293° |
| 2026-04-14 16:31 | 51.08129 | 4.65073 | 41207 ft | 413 kts | 299° |
| 2026-04-14 16:31 | 51.09199 | 4.60844 | 41205 ft | 414 kts | 288° |
| 2026-04-14 16:31 | 51.09715 | 4.56330 | 41213 ft | 418 kts | 277° |
| 2026-04-14 16:32 | 51.09061 | 4.47070 | 41211 ft | 429 kts | 258° |
| 2026-04-14 16:32 | 51.06564 | 4.38330 | 41208 ft | 442 kts | 242° |
| 2026-04-14 16:33 | 51.02332 | 4.31076 | 41206 ft | 457 kts | 221° |
| 2026-04-14 16:33 | 50.99596 | 4.28420 | 41209 ft | 465 kts | 210° |
| 2026-04-14 16:33 | 50.96540 | 4.26624 | 41211 ft | 473 kts | 198° |
| 2026-04-14 16:33 | 50.93316 | 4.25801 | 41202 ft | 479 kts | 186° |
| 2026-04-14 16:34 | 50.89971 | 4.25993 | 41205 ft | 485 kts | 174° |
| 2026-04-14 16:34 | 50.86681 | 4.27237 | 41203 ft | 489 kts | 161° |
| 2026-04-14 16:34 | 50.83593 | 4.29501 | 41207 ft | 491 kts | 149° |
| 2026-04-14 16:34 | 50.80845 | 4.32698 | 41208 ft | 491 kts | 136° |
| 2026-04-14 16:35 | 50.78557 | 4.36691 | 41206 ft | 489 kts | 123° |
| 2026-04-14 16:35 | 50.76826 | 4.41286 | 41215 ft | 486 kts | 112° |
| 2026-04-14 16:35 | 50.75466 | 4.46163 | 41208 ft | 485 kts | 109° |
| 2026-04-14 16:36 | 50.73099 | 4.56136 | 41204 ft | 485 kts | 107° |
| 2026-04-14 16:36 | 50.70973 | 4.66290 | 41213 ft | 490 kts | 103° |
| 2026-04-14 16:37 | 50.69035 | 4.76651 | 41198 ft | 492 kts | 104° |
| 2026-04-14 16:37 | 50.67082 | 4.86964 | 41214 ft | 490 kts | 104° |
| 2026-04-14 16:38 | 50.65069 | 4.97227 | 41200 ft | 490 kts | 105° |
| 2026-04-14 16:38 | 50.62965 | 5.07440 | 41203 ft | 490 kts | 105° |
| 2026-04-14 16:39 | 50.60838 | 5.17648 | 41181 ft | 489 kts | 106° |
| 2026-04-14 16:39 | 50.59782 | 5.22714 | 40983 ft | 486 kts | 106° |
| 2026-04-14 16:39 | 50.58732 | 5.27752 | 40726 ft | 483 kts | 106° |
| 2026-04-14 16:39 | 50.57701 | 5.32697 | 40315 ft | 481 kts | 105° |
| 2026-04-14 16:40 | 50.56656 | 5.37702 | 39790 ft | 483 kts | 105° |
| 2026-04-14 16:40 | 50.55605 | 5.42731 | 39278 ft | 485 kts | 105° |
| 2026-04-14 16:40 | 50.54548 | 5.47779 | 38698 ft | 487 kts | 105° |
| 2026-04-14 16:40 | 50.53485 | 5.52835 | 38085 ft | 487 kts | 105° |
| 2026-04-14 16:41 | 50.52421 | 5.57883 | 37536 ft | 486 kts | 105° |
| 2026-04-14 16:41 | 50.51356 | 5.62922 | 36959 ft | 486 kts | 105° |
| 2026-04-14 16:41 | 50.50333 | 5.67978 | 36393 ft | 485 kts | 103° |
| 2026-04-14 16:41 | 50.49378 | 5.73060 | 35769 ft | 485 kts | 102° |
| 2026-04-14 16:42 | 50.48450 | 5.78164 | 35120 ft | 487 kts | 102° |
| 2026-04-14 16:42 | 50.47520 | 5.83293 | 34440 ft | 490 kts | 102° |
| 2026-04-14 16:42 | 50.46577 | 5.88445 | 33672 ft | 493 kts | 102° |
| 2026-04-14 16:42 | 50.45618 | 5.93619 | 32937 ft | 494 kts | 102° |
| 2026-04-14 16:43 | 50.44649 | 5.98783 | 32203 ft | 494 kts | 102° |
| 2026-04-14 16:43 | 50.43672 | 6.03944 | 31667 ft | 491 kts | 102° |
| 2026-04-14 16:43 | 50.42697 | 6.09053 | 31159 ft | 487 kts | 102° |
| 2026-04-14 16:43 | 50.41728 | 6.14116 | 30649 ft | 483 kts | 102° |
| 2026-04-14 16:44 | 50.40766 | 6.19130 | 30108 ft | 479 kts | 102° |
| 2026-04-14 16:44 | 50.39811 | 6.24107 | 29545 ft | 474 kts | 102° |
| 2026-04-14 16:44 | 50.38865 | 6.29024 | 28994 ft | 469 kts | 102° |
| 2026-04-14 16:45 | 50.37008 | 6.38707 | 27992 ft | 458 kts | 102° |
| 2026-04-14 16:45 | 50.36392 | 6.43542 | 27510 ft | 449 kts | 93° |
| 2026-04-14 16:45 | 50.36000 | 6.48358 | 27026 ft | 444 kts | 92° |
| 2026-04-14 16:45 | 50.35676 | 6.53141 | 26502 ft | 440 kts | 92° |
| 2026-04-14 16:46 | 50.35377 | 6.57892 | 25993 ft | 437 kts | 92° |
| 2026-04-14 16:46 | 50.35086 | 6.62598 | 25503 ft | 433 kts | 92° |
| 2026-04-14 16:46 | 50.34796 | 6.67272 | 25015 ft | 430 kts | 92° |
| 2026-04-14 16:46 | 50.34505 | 6.71910 | 24515 ft | 427 kts | 92° |
| 2026-04-14 16:47 | 50.34213 | 6.76524 | 24021 ft | 424 kts | 93° |
| 2026-04-14 16:47 | 50.33929 | 6.81099 | 23515 ft | 421 kts | 93° |
| 2026-04-14 16:47 | 50.33516 | 6.85614 | 23009 ft | 419 kts | 101° |
| 2026-04-14 16:47 | 50.32539 | 6.89895 | 22525 ft | 417 kts | 112° |
| 2026-04-14 16:48 | 50.31331 | 6.93999 | 22038 ft | 413 kts | 114° |
| 2026-04-14 16:48 | 50.30109 | 6.98042 | 21562 ft | 409 kts | 114° |
| 2026-04-14 16:48 | 50.28903 | 7.02046 | 21088 ft | 405 kts | 114° |
| 2026-04-14 16:48 | 50.27714 | 7.06008 | 20631 ft | 401 kts | 114° |
| 2026-04-14 16:49 | 50.26536 | 7.09939 | 20167 ft | 397 kts | 114° |
| 2026-04-14 16:49 | 50.25368 | 7.13834 | 19711 ft | 394 kts | 114° |
| 2026-04-14 16:49 | 50.24225 | 7.17645 | 19264 ft | 391 kts | 114° |
| 2026-04-14 16:49 | 50.23074 | 7.21477 | 18817 ft | 388 kts | 114° |
| 2026-04-14 16:50 | 50.21931 | 7.25278 | 18345 ft | 386 kts | 114° |
| 2026-04-14 16:50 | 50.20780 | 7.29100 | 17859 ft | 382 kts | 114° |
| 2026-04-14 16:50 | 50.19668 | 7.32785 | 17409 ft | 378 kts | 114° |
| 2026-04-14 16:50 | 50.18638 | 7.36541 | 16968 ft | 374 kts | 109° |
| 2026-04-14 16:51 | 50.17766 | 7.40338 | 16527 ft | 370 kts | 108° |
| 2026-04-14 16:51 | 50.16908 | 7.44104 | 16079 ft | 367 kts | 108° |
| 2026-04-14 16:51 | 50.16042 | 7.47834 | 15644 ft | 365 kts | 109° |
| 2026-04-14 16:51 | 50.15171 | 7.51535 | 15189 ft | 362 kts | 108° |
| 2026-04-14 16:52 | 50.14300 | 7.55201 | 14749 ft | 360 kts | 108° |
| 2026-04-14 16:52 | 50.13439 | 7.58845 | 14350 ft | 356 kts | 108° |
| 2026-04-14 16:52 | 50.12603 | 7.62425 | 14182 ft | 346 kts | 108° |
| 2026-04-14 16:52 | 50.11794 | 7.65905 | 14001 ft | 337 kts | 108° |
| 2026-04-14 16:53 | 50.10989 | 7.69346 | 13376 ft | 341 kts | 108° |
| 2026-04-14 16:53 | 50.10170 | 7.72853 | 12742 ft | 346 kts | 109° |
| 2026-04-14 16:53 | 50.09374 | 7.76381 | 12248 ft | 345 kts | 109° |
| 2026-04-14 16:53 | 50.08602 | 7.79901 | 11796 ft | 343 kts | 109° |
| 2026-04-14 16:54 | 50.07856 | 7.83434 | 11267 ft | 344 kts | 109° |
| 2026-04-14 16:54 | 50.07145 | 7.86973 | 10874 ft | 340 kts | 106° |
| 2026-04-14 16:54 | 50.06941 | 7.90573 | 10677 ft | 332 kts | 84° |
| 2026-04-14 16:54 | 50.07490 | 7.93995 | 10522 ft | 322 kts | 71° |
| 2026-04-14 16:55 | 50.08246 | 7.97223 | 10370 ft | 313 kts | 70° |
| 2026-04-14 16:55 | 50.09010 | 8.00350 | 10243 ft | 305 kts | 69° |
| 2026-04-14 16:55 | 50.09761 | 8.03400 | 10079 ft | 299 kts | 69° |
| 2026-04-14 16:55 | 50.10507 | 8.06415 | 9748 ft | 298 kts | 69° |
| 2026-04-14 16:56 | 50.11238 | 8.09401 | 9516 ft | 293 kts | 69° |
| 2026-04-14 16:56 | 50.11955 | 8.12357 | 9252 ft | 290 kts | 69° |
| 2026-04-14 16:56 | 50.12654 | 8.15274 | 9067 ft | 284 kts | 70° |
| 2026-04-14 16:56 | 50.13010 | 8.18236 | 8909 ft | 276 kts | 93° |
| 2026-04-14 16:57 | 50.12510 | 8.21047 | 8769 ft | 268 kts | 120° |
| 2026-04-14 16:57 | 50.11267 | 8.23120 | 8629 ft | 261 kts | 148° |
| 2026-04-14 16:57 | 50.09589 | 8.24006 | 8453 ft | 255 kts | 177° |
| 2026-04-14 16:57 | 50.07877 | 8.23530 | 8232 ft | 251 kts | 206° |
| 2026-04-14 16:58 | 50.06549 | 8.21833 | 7942 ft | 249 kts | 236° |
| 2026-04-14 16:58 | 50.05805 | 8.19429 | 7720 ft | 246 kts | 251° |
| 2026-04-14 16:58 | 50.05262 | 8.16904 | 7474 ft | 246 kts | 253° |
| 2026-04-14 16:58 | 50.04730 | 8.14371 | 7212 ft | 247 kts | 253° |
| 2026-04-14 16:59 | 50.04201 | 8.11839 | 6989 ft | 246 kts | 254° |
| 2026-04-14 16:59 | 50.03660 | 8.09310 | 6730 ft | 247 kts | 253° |
| 2026-04-14 16:59 | 50.03129 | 8.06818 | 6498 ft | 246 kts | 253° |
| 2026-04-14 16:59 | 50.02600 | 8.04324 | 6354 ft | 240 kts | 253° |
| 2026-04-14 17:00 | 50.01888 | 8.02024 | 6198 ft | 236 kts | 231° |
| 2026-04-14 17:00 | 50.00580 | 8.00576 | 6061 ft | 231 kts | 198° |
| 2026-04-14 17:00 | 49.99013 | 8.00415 | 5898 ft | 226 kts | 166° |
| 2026-04-14 17:00 | 49.97536 | 8.01197 | 5687 ft | 224 kts | 155° |
| 2026-04-14 17:01 | 49.96125 | 8.02193 | 5495 ft | 221 kts | 151° |
| 2026-04-14 17:01 | 49.94999 | 8.03752 | 5264 ft | 217 kts | 118° |
| 2026-04-14 17:01 | 49.94415 | 8.05879 | 5089 ft | 213 kts | 105° |
| 2026-04-14 17:01 | 49.94108 | 8.08104 | 5021 ft | 211 kts | 87° |
| 2026-04-14 17:02 | 49.94318 | 8.10327 | 5026 ft | 206 kts | 72° |
| 2026-04-14 17:02 | 49.94749 | 8.12351 | 5041 ft | 189 kts | 67° |
| 2026-04-14 17:02 | 49.95207 | 8.14241 | 5025 ft | 186 kts | 67° |
| 2026-04-14 17:02 | 49.95664 | 8.16123 | 5014 ft | 187 kts | 67° |
| 2026-04-14 17:03 | 49.96115 | 8.18009 | 4956 ft | 186 kts | 68° |
| 2026-04-14 17:03 | 49.96556 | 8.19894 | 4712 ft | 185 kts | 67° |
| 2026-04-14 17:03 | 49.97004 | 8.21763 | 4421 ft | 184 kts | 67° |
| 2026-04-14 17:03 | 49.97453 | 8.23625 | 4122 ft | 184 kts | 68° |
| 2026-04-14 17:04 | 49.97897 | 8.25480 | 3848 ft | 183 kts | 67° |
| 2026-04-14 17:04 | 49.98340 | 8.27326 | 3560 ft | 182 kts | 67° |
| 2026-04-14 17:04 | 49.98782 | 8.29170 | 3305 ft | 182 kts | 67° |
| 2026-04-14 17:04 | 49.99225 | 8.31017 | 3034 ft | 182 kts | 68° |
| 2026-04-14 17:05 | 49.99667 | 8.32857 | 2777 ft | 181 kts | 67° |
| 2026-04-14 17:05 | 50.00103 | 8.34677 | 2505 ft | 178 kts | 68° |
| 2026-04-14 17:05 | 50.00528 | 8.36451 | 2240 ft | 171 kts | 68° |
| 2026-04-14 17:05 | 50.00926 | 8.38116 | 1997 ft | 157 kts | 67° |
| 2026-04-14 17:06 | 50.01296 | 8.39656 | 1776 ft | 147 kts | 68° |
| 2026-04-14 17:06 | 50.01635 | 8.41075 | 1578 ft | 134 kts | 67° |
| 2026-04-14 17:06 | 50.01957 | 8.42415 | 1386 ft | 132 kts | 68° |
| 2026-04-14 17:06 | 50.02278 | 8.43756 | 1198 ft | 133 kts | 69° |
| 2026-04-14 17:07 | 50.02491 | 8.44650 | 1088 ft | 133 kts | 68° |
| 2026-04-14 17:07 | 50.02810 | 8.45994 | 861 ft | 132 kts | 69° |
| 2026-04-14 17:07 | 50.03136 | 8.47321 | 687 ft | 131 kts | 69° |
| 2026-04-14 17:07 | 50.03453 | 8.48638 | 500 ft | 129 kts | 70° |
| 2026-04-14 17:08 | 50.03761 | 8.49942 | 347 ft | 127 kts | 69° |
| 2026-04-14 17:08 | 50.04033 | 8.51074 | 328 ft | 90 kts | 70° |
| 2026-04-14 17:08 | 50.04222 | 8.51858 | 350 ft | 67 kts | 69° |
| 2026-04-14 17:08 | 50.04354 | 8.52412 | 350 ft | 34 kts | 70° |
| 2026-04-14 17:09 | 50.04396 | 8.52756 | 358 ft | 31 kts | 94° |
| 2026-04-14 17:09 | 50.04365 | 8.53071 | 364 ft | 28 kts | 100° |
| 2026-04-14 17:09 | 50.04360 | 8.53340 | 376 ft | 22 kts | 73° |
| 2026-04-14 17:09 | 50.04399 | 8.53545 | 379 ft | 19 kts | 82° |
| 2026-04-14 17:10 | 50.04411 | 8.53752 | 379 ft | 20 kts | 85° |
| 2026-04-14 17:10 | 50.04426 | 8.53978 | 379 ft | 22 kts | 84° |
| 2026-04-14 17:10 | 50.04442 | 8.54215 | 379 ft | 23 kts | 84° |
| 2026-04-14 17:10 | 50.04451 | 8.54472 | 373 ft | 26 kts | 96° |
| 2026-04-14 17:11 | 50.04406 | 8.54650 | 371 ft | 16 kts | 125° |
| 2026-04-14 17:11 | 50.04389 | 8.54682 | 374 ft | 4 kts | 130° |
| 2026-04-14 17:11 | 50.04356 | 8.54730 | 370 ft | 9 kts | 143° |
| 2026-04-14 17:11 | 50.04280 | 8.54792 | 366 ft | 16 kts | 159° |
| 2026-04-14 17:12 | 50.04164 | 8.54856 | 359 ft | 19 kts | 160° |
| 2026-04-14 17:12 | 50.04034 | 8.54936 | 364 ft | 19 kts | 148° |
| 2026-04-14 17:12 | 50.04038 | 8.55098 | 365 ft | 16 kts | 70° |
| 2026-04-14 17:12 | 50.04079 | 8.55269 | 361 ft | 18 kts | 70° |
| 2026-04-14 17:13 | 50.04125 | 8.55461 | 364 ft | 20 kts | 70° |
| 2026-04-14 17:13 | 50.04174 | 8.55668 | 364 ft | 21 kts | 70° |
| 2026-04-14 17:13 | 50.04225 | 8.55880 | 365 ft | 21 kts | 69° |
| 2026-04-14 17:13 | 50.04276 | 8.56094 | 363 ft | 21 kts | 69° |
| 2026-04-14 17:14 | 50.04329 | 8.56314 | 366 ft | 22 kts | 70° |
| 2026-04-14 17:14 | 50.04382 | 8.56538 | 366 ft | 22 kts | 70° |
| 2026-04-14 17:14 | 50.04436 | 8.56762 | 366 ft | 22 kts | 69° |
| 2026-04-14 17:14 | 50.04491 | 8.56990 | 364 ft | 24 kts | 70° |
| 2026-04-14 17:15 | 50.04549 | 8.57235 | 368 ft | 24 kts | 69° |
| 2026-04-14 17:15 | 50.04608 | 8.57483 | 370 ft | 22 kts | 69° |
| 2026-04-14 17:15 | 50.04661 | 8.57708 | 368 ft | 23 kts | 70° |
| 2026-04-14 17:15 | 50.04709 | 8.57890 | 367 ft | 15 kts | 55° |
| 2026-04-14 17:16 | 50.04766 | 8.57904 | 368 ft | 2 kts | 307° |
| 2026-04-14 17:16 | 50.04762 | 8.57859 | 368 ft | 7 kts | 266° |
| 2026-04-14 17:16 | 50.04763 | 8.57767 | 365 ft | 2 kts | 270° |
| 2026-04-14 17:16 | 50.04763 | 8.57748 | 365 ft | 0 kts | 270° |
| 2026-04-14 17:17 | 50.04763 | 8.57741 | 365 ft | 0 kts | 270° |